Time;durP1;ratioP1;P1;durP2;ratioP2;P2;SDS_P1;SDS_P2;PMS_P1;PMS_P2;Temp;Humidity;BMP_temperature;BMP_pressure;BME280_temperature;BME280_humidity;BME280_pressure;Samples;Min_cycle;Max_cycle;Signal;HPM_P1;HPM_P2
2022/10/14 00:59:06;;;;;;;37.92;29.02;;;16.10;76.70;;;;;;5053102;28;20508;-68
2022/10/14 01:01:32;;;;;;;35.05;29.40;;;16.10;76.60;;;;;;5071929;28;20051;-68
2022/10/14 01:03:58;;;;;;;37.42;29.38;;;16.10;76.80;;;;;;5072068;28;20475;-68
2022/10/14 01:06:38;;;;;;;35.58;28.70;;;16.20;76.90;;;;;;5072931;28;20056;-68
2022/10/14 01:09:08;;;;;;;38.15;30.60;;;16.20;76.60;;;;;;5074321;28;20099;-68
2022/10/14 01:11:49;;;;;;;36.80;31.10;;;16.10;76.40;;;;;;5074463;28;20564;-68
2022/10/14 01:14:46;;;;;;;40.10;32.05;;;16.10;76.50;;;;;;5074112;28;20025;-68
2022/10/14 01:17:22;;;;;;;38.50;32.42;;;16.10;76.50;;;;;;5073973;28;20457;-68
2022/10/14 01:20:06;;;;;;;39.30;31.80;;;16.10;76.40;;;;;;5073986;28;20033;-68
2022/10/14 01:22:42;;;;;;;38.90;33.60;;;16.20;76.30;;;;;;5074197;28;20039;-68
2022/10/14 01:25:34;;;;;;;38.53;32.92;;;16.20;76.40;;;;;;5073941;28;20044;-68
2022/10/14 01:28:15;;;;;;;40.63;31.75;;;16.20;76.20;;;;;;5073613;28;20048;-68
2022/10/14 01:30:47;;;;;;;39.83;32.22;;;16.20;76.70;;;;;;5073968;28;20518;-68
2022/10/14 01:33:18;;;;;;;37.08;31.08;;;16.20;76.00;;;;;;5073863;28;20432;-68
2022/10/14 01:35:53;;;;;;;38.35;32.97;;;16.20;75.80;;;;;;5073595;28;20033;-68
2022/10/14 01:38:21;;;;;;;39.97;31.90;;;16.20;75.80;;;;;;5073821;28;20031;-68
2022/10/14 01:40:55;;;;;;;39.25;32.22;;;16.20;75.80;;;;;;5074079;28;20091;-68
2022/10/14 01:43:23;;;;;;;40.95;30.70;;;16.20;75.90;;;;;;5073584;28;20033;-68
2022/10/14 01:45:52;;;;;;;39.25;31.58;;;16.20;75.90;;;;;;5073523;28;20048;-68
2022/10/14 01:48:21;;;;;;;39.63;31.88;;;16.20;75.90;;;;;;5073452;28;20044;-68
2022/10/14 01:50:51;;;;;;;39.60;32.42;;;16.20;76.00;;;;;;5073809;28;20634;-68
2022/10/14 01:53:39;;;;;;;38.83;31.95;;;16.20;76.10;;;;;;5073606;28;20046;-68
2022/10/14 01:56:06;;;;;;;36.10;30.50;;;16.20;76.30;;;;;;5074117;28;20431;-68
2022/10/14 01:58:33;;;;;;;33.22;28.48;;;16.20;76.40;;;;;;5073274;28;20037;-68
2022/10/14 02:01:02;;;;;;;36.90;29.83;;;16.20;76.30;;;;;;5073500;28;20473;-68
2022/10/14 02:03:41;;;;;;;36.95;29.65;;;16.20;76.40;;;;;;5073512;28;20032;-68
2022/10/14 02:06:15;;;;;;;34.22;29.05;;;16.10;76.20;;;;;;5078662;28;20378;-68
2022/10/14 02:09:02;;;;;;;36.67;29.15;;;16.10;76.30;;;;;;5093270;28;20498;-68
2022/10/14 02:11:39;;;;;;;32.45;28.60;;;16.10;76.40;;;;;;5093630;28;20123;-68
2022/10/14 02:14:08;;;;;;;31.10;27.40;;;16.00;76.50;;;;;;5093571;28;20036;-68
2022/10/14 02:16:45;;;;;;;35.58;28.58;;;16.00;76.50;;;;;;5093249;28;20035;-68
2022/10/14 02:19:28;;;;;;;33.80;28.02;;;16.00;76.50;;;;;;5093101;28;20043;-68
2022/10/14 02:22:05;;;;;;;33.25;27.88;;;15.90;76.50;;;;;;5093573;28;20395;-68
2022/10/14 02:24:41;;;;;;;35.05;28.83;;;15.90;77.20;;;;;;5093164;28;20036;-67
2022/10/14 02:27:12;;;;;;;33.70;27.60;;;15.90;76.60;;;;;;5093217;28;20036;-68
2022/10/14 02:29:40;;;;;;;36.05;26.30;;;15.90;76.60;;;;;;5093381;28;20075;-68
2022/10/14 02:32:07;;;;;;;36.35;28.20;;;15.80;76.90;;;;;;5093416;28;20021;-68
2022/10/14 02:34:34;;;;;;;33.03;27.08;;;15.80;77.00;;;;;;5093382;28;20036;-68
2022/10/14 02:37:01;;;;;;;32.80;27.02;;;15.80;76.80;;;;;;5093118;28;20392;-68
2022/10/14 02:39:36;;;;;;;37.72;27.25;;;15.80;76.70;;;;;;5092946;28;20032;-68
2022/10/14 02:42:02;;;;;;;33.05;26.90;;;15.80;76.60;;;;;;5093151;28;20028;-68
2022/10/14 02:44:28;;;;;;;32.33;27.52;;;15.80;76.60;;;;;;5093227;28;20043;-68
2022/10/14 02:46:55;;;;;;;33.03;26.52;;;15.70;76.70;;;;;;5093222;28;20040;-68
2022/10/14 02:49:21;;;;;;;30.55;27.05;;;15.70;76.70;;;;;;5093131;28;20085;-68
2022/10/14 02:51:46;;;;;;;34.13;27.17;;;15.70;77.10;;;;;;5092966;28;20040;-68
2022/10/14 02:54:12;;;;;;;34.47;28.42;;;15.60;77.20;;;;;;5093048;28;20036;-68
2022/10/14 02:56:38;;;;;;;35.97;27.88;;;15.60;77.10;;;;;;5092982;28;20036;-68
2022/10/14 02:59:04;;;;;;;34.53;28.20;;;15.50;77.10;;;;;;5092963;28;20051;-68
2022/10/14 03:01:30;;;;;;;31.48;27.90;;;15.50;77.00;;;;;;5093127;28;20165;-68
2022/10/14 03:03:56;;;;;;;35.42;27.60;;;15.40;77.00;;;;;;5092748;28;20032;-68
2022/10/14 03:06:21;;;;;;;40.15;27.80;;;15.40;76.80;;;;;;5092853;28;20036;-68
2022/10/14 03:08:47;;;;;;;33.30;26.63;;;15.40;77.20;;;;;;5092739;28;20044;-68
2022/10/14 03:11:12;;;;;;;34.20;26.65;;;15.30;77.40;;;;;;5092595;28;20032;-69
2022/10/14 03:13:38;;;;;;;31.40;26.92;;;15.20;77.30;;;;;;5092666;28;20082;-68
2022/10/14 03:16:04;;;;;;;33.13;27.58;;;15.20;77.40;;;;;;5092944;28;20036;-68
2022/10/14 03:18:30;;;;;;;36.22;26.42;;;15.10;77.40;;;;;;5092962;28;20123;-68
2022/10/14 03:20:56;;;;;;;33.65;27.30;;;15.10;77.70;;;;;;5092924;28;20044;-68
2022/10/14 03:23:21;;;;;;;31.88;26.08;;;15.10;77.40;;;;;;5092886;28;20062;-68
2022/10/14 03:25:47;;;;;;;39.92;29.80;;;15.00;77.50;;;;;;5092776;28;20535;-68
2022/10/14 03:28:13;;;;;;;38.35;30.52;;;15.00;77.60;;;;;;5092419;28;20385;-68
2022/10/14 03:30:39;;;;;;;37.13;28.77;;;14.90;77.80;;;;;;5095105;28;20461;-68
2022/10/14 03:33:05;;;;;;;40.65;29.65;;;14.90;78.00;;;;;;5096540;28;20476;-68
2022/10/14 03:35:30;;;;;;;43.95;30.15;;;14.90;78.00;;;;;;5096492;28;20043;-68
2022/10/14 03:37:58;;;;;;;37.83;28.50;;;14.90;78.20;;;;;;5096392;28;20044;-68
2022/10/14 03:40:24;;;;;;;40.17;30.27;;;14.80;78.00;;;;;;5096216;28;20062;-67
2022/10/14 03:42:49;;;;;;;37.05;28.80;;;14.80;78.10;;;;;;5096560;28;20032;-68
2022/10/14 03:45:15;;;;;;;38.47;29.65;;;14.80;78.00;;;;;;5096356;28;20044;-67
2022/10/14 03:47:41;;;;;;;38.30;30.25;;;14.70;78.50;;;;;;5096005;28;20112;-68
2022/10/14 03:50:07;;;;;;;37.92;30.20;;;14.70;78.40;;;;;;5096273;28;20039;-68
2022/10/14 03:52:32;;;;;;;42.97;31.48;;;14.70;78.70;;;;;;5096246;28;20130;-68
2022/10/14 03:54:58;;;;;;;44.10;31.73;;;14.60;78.90;;;;;;5096024;28;20396;-68
2022/10/14 03:57:24;;;;;;;45.05;31.08;;;14.60;79.00;;;;;;5096517;28;20064;-68
2022/10/14 03:59:49;;;;;;;44.38;32.80;;;14.60;78.80;;;;;;5096100;28;20048;-68
2022/10/14 04:02:15;;;;;;;40.10;31.67;;;14.60;79.20;;;;;;5096085;28;20032;-68
2022/10/14 04:04:41;;;;;;;44.25;31.52;;;14.60;79.50;;;;;;5095874;28;20042;-68
2022/10/14 04:07:06;;;;;;;44.40;31.50;;;14.50;79.70;;;;;;5096018;28;20130;-68
2022/10/14 04:09:32;;;;;;;38.97;29.85;;;14.50;79.70;;;;;;5095838;28;20107;-68
2022/10/14 04:11:58;;;;;;;40.80;30.92;;;14.50;79.30;;;;;;5095907;28;20067;-68
2022/10/14 04:14:25;;;;;;;39.65;30.08;;;14.40;79.60;;;;;;5096100;28;20086;-68
2022/10/14 04:16:51;;;;;;;40.42;30.67;;;14.40;79.60;;;;;;5095955;28;20040;-68
2022/10/14 04:19:18;;;;;;;41.25;31.20;;;14.40;79.80;;;;;;5095558;28;20062;-68
2022/10/14 04:21:44;;;;;;;38.72;30.20;;;14.40;80.00;;;;;;5095831;28;20391;-68
2022/10/14 04:24:10;;;;;;;39.60;31.42;;;14.40;79.60;;;;;;5095447;28;20544;-68
2022/10/14 04:26:36;;;;;;;41.72;32.30;;;14.40;79.70;;;;;;5095696;28;20106;-68
2022/10/14 04:29:01;;;;;;;39.72;31.48;;;14.30;80.00;;;;;;5095671;28;20078;-67
2022/10/14 04:31:27;;;;;;;40.88;31.58;;;14.30;79.90;;;;;;5095513;28;20044;-67
2022/10/14 04:33:53;;;;;;;42.28;31.38;;;14.30;79.80;;;;;;5095384;28;20036;-68
2022/10/14 04:36:18;;;;;;;46.33;30.67;;;14.30;80.00;;;;;;5095606;28;20059;-68
2022/10/14 04:38:44;;;;;;;40.75;30.48;;;14.30;79.60;;;;;;5095386;28;20036;-68
2022/10/14 04:41:10;;;;;;;42.90;30.20;;;14.30;79.60;;;;;;5095143;28;20476;-68
2022/10/14 04:43:35;;;;;;;42.28;32.03;;;14.20;79.70;;;;;;5095188;28;20457;-68
2022/10/14 04:46:01;;;;;;;50.42;31.65;;;14.20;80.00;;;;;;5095129;28;20086;-67
2022/10/14 04:48:27;;;;;;;41.08;33.38;;;14.20;80.20;;;;;;5095124;28;20055;-68
2022/10/14 04:50:53;;;;;;;46.58;31.20;;;14.20;80.10;;;;;;5095840;28;20043;-67
2022/10/14 04:53:19;;;;;;;40.42;31.40;;;14.20;80.30;;;;;;5095158;28;20024;-68
2022/10/14 04:55:48;;;;;;;45.42;33.22;;;14.10;80.50;;;;;;5095471;28;20388;-67
2022/10/14 04:58:15;;;;;;;45.50;31.63;;;14.10;80.30;;;;;;5095205;28;20036;-68
2022/10/14 05:00:41;;;;;;;43.58;31.77;;;14.10;80.50;;;;;;5094949;28;20062;-68
2022/10/14 05:03:07;;;;;;;46.92;31.80;;;14.10;80.60;;;;;;5094998;28;20055;-67
2022/10/14 05:05:32;;;;;;;41.47;32.05;;;14.10;80.40;;;;;;5094904;28;20039;-67
2022/10/14 05:07:58;;;;;;;45.72;32.50;;;14.10;80.40;;;;;;5094656;28;20070;-68
2022/10/14 05:10:24;;;;;;;48.38;33.03;;;14.10;80.60;;;;;;5094530;28;20032;-68
2022/10/14 05:12:50;;;;;;;44.17;31.98;;;14.10;80.70;;;;;;5088162;28;20028;-68
2022/10/14 05:15:16;;;;;;;48.15;33.17;;;14.00;80.70;;;;;;5074434;28;20481;-68
2022/10/14 05:17:43;;;;;;;48.05;33.97;;;14.00;80.70;;;;;;5074373;28;20107;-68
2022/10/14 05:20:10;;;;;;;47.40;34.70;;;14.00;80.90;;;;;;5074028;28;20049;-68
2022/10/14 05:22:36;;;;;;;51.03;35.22;;;14.00;81.60;;;;;;5074018;28;20127;-68
2022/10/14 05:25:02;;;;;;;47.42;36.22;;;14.00;81.00;;;;;;5073992;28;20485;-68
2022/10/14 05:27:28;;;;;;;50.42;36.35;;;14.00;81.30;;;;;;5073714;28;20079;-68
2022/10/14 05:29:53;;;;;;;48.83;35.05;;;14.00;81.50;;;;;;5074010;28;20035;-68
2022/10/14 05:32:19;;;;;;;44.00;33.47;;;14.00;81.20;;;;;;5073747;28;20481;-68
2022/10/14 05:34:45;;;;;;;42.72;33.47;;;14.00;81.40;;;;;;5073915;28;20029;-68
2022/10/14 05:37:10;;;;;;;47.72;34.50;;;14.00;81.60;;;;;;5073759;28;20028;-68
2022/10/14 05:39:36;;;;;;;42.90;33.65;;;13.90;81.50;;;;;;5073719;28;20036;-72
2022/10/14 05:42:02;;;;;;;48.38;35.22;;;13.90;81.60;;;;;;5073602;28;20028;-72
2022/10/14 05:44:27;;;;;;;44.33;35.45;;;13.90;81.60;;;;;;5073796;28;20078;-68
2022/10/14 05:46:53;;;;;;;49.40;35.95;;;13.90;81.70;;;;;;5072131;28;20029;-67
2022/10/14 05:49:19;;;;;;;46.38;35.42;;;13.90;81.80;;;;;;5073161;28;20034;-68
2022/10/14 05:51:44;;;;;;;45.75;34.65;;;14.00;81.90;;;;;;5073346;28;20111;-67
2022/10/14 05:54:11;;;;;;;46.65;36.20;;;14.00;82.00;;;;;;5073299;28;20036;-67
2022/10/14 05:56:37;;;;;;;48.33;36.20;;;14.00;81.90;;;;;;5073204;28;20049;-67
2022/10/14 05:59:02;;;;;;;47.83;35.20;;;13.90;81.70;;;;;;5073255;28;20052;-67
2022/10/14 06:01:30;;;;;;;52.95;36.63;;;14.00;81.90;;;;;;5073297;28;20071;-68
2022/10/14 06:03:55;;;;;;;54.05;36.65;;;13.90;81.90;;;;;;5081611;28;20058;-71
2022/10/14 06:06:21;;;;;;;49.97;36.45;;;13.90;82.20;;;;;;5091908;28;20484;-68
2022/10/14 06:08:47;;;;;;;55.80;36.55;;;13.90;82.20;;;;;;5073243;28;20434;-69
2022/10/14 06:11:13;;;;;;;59.47;36.40;;;14.00;82.20;;;;;;5073070;28;20094;-68
2022/10/14 06:13:38;;;;;;;65.75;37.50;;;14.00;82.40;;;;;;5092645;28;20032;-71
2022/10/14 06:16:06;;;;;;;57.40;34.13;;;14.00;82.20;;;;;;5093090;28;20067;-67
2022/10/14 06:18:33;;;;;;;51.63;33.47;;;14.00;81.90;;;;;;5093239;28;20107;-67
2022/10/14 06:20:59;;;;;;;52.08;34.50;;;14.00;81.80;;;;;;5093192;28;20032;-67
2022/10/14 06:23:25;;;;;;;47.38;33.97;;;14.00;82.10;;;;;;5093420;28;20574;-67
2022/10/14 06:25:51;;;;;;;59.80;34.20;;;14.00;82.00;;;;;;5092570;28;20134;-67
2022/10/14 06:28:16;;;;;;;57.15;33.38;;;14.10;82.00;;;;;;5092655;28;20103;-70
2022/10/14 06:30:47;;;;;;;55.58;35.53;;;14.10;81.90;;;;;;5080221;28;20431;-68
2022/10/14 06:33:13;;;;;;;48.35;34.00;;;14.10;82.00;;;;;;5072097;28;20033;-67
2022/10/14 06:35:38;;;;;;;55.53;37.17;;;14.20;82.30;;;;;;5072429;28;20090;-68
2022/10/14 06:38:04;;;;;;;62.67;35.97;;;14.20;82.70;;;;;;5072552;28;20476;-68
2022/10/14 06:40:30;;;;;;;46.30;34.75;;;14.20;82.60;;;;;;5072386;28;20432;-67
2022/10/14 06:42:58;;;;;;;52.85;35.55;;;14.30;82.90;;;;;;5072668;28;20472;-68
2022/10/14 06:45:24;;;;;;;52.60;35.50;;;14.30;83.00;;;;;;5072459;28;20111;-68
2022/10/14 06:47:50;;;;;;;51.30;37.00;;;14.40;83.20;;;;;;5072668;28;20071;-68
2022/10/14 06:50:16;;;;;;;49.03;35.33;;;14.40;83.40;;;;;;5087760;28;20419;-68
2022/10/14 06:52:44;;;;;;;49.80;36.30;;;14.50;83.60;;;;;;5074662;28;20039;-68
2022/10/14 06:55:10;;;;;;;51.50;36.83;;;14.60;83.90;;;;;;5092856;28;20496;-72
2022/10/14 06:57:35;;;;;;;46.97;35.80;;;14.70;84.30;;;;;;5093004;28;20035;-68
2022/10/14 07:00:02;;;;;;;48.22;36.05;;;14.70;84.10;;;;;;5092459;28;20089;-69
2022/10/14 07:02:27;;;;;;;61.63;38.45;;;14.80;84.10;;;;;;5092530;28;20036;-68
2022/10/14 07:04:53;;;;;;;49.75;37.83;;;14.80;84.00;;;;;;5076386;28;20417;-70
2022/10/14 07:07:18;;;;;;;63.58;36.47;;;14.90;84.10;;;;;;5076657;28;20400;-70
2022/10/14 07:09:44;;;;;;;46.22;35.63;;;15.00;83.80;;;;;;5076381;28;20396;-69
2022/10/14 07:12:10;;;;;;;46.13;35.95;;;15.00;83.40;;;;;;5076494;28;20024;-72
2022/10/14 07:14:35;;;;;;;48.20;36.78;;;15.10;82.90;;;;;;5077231;28;20047;-68
2022/10/14 07:17:01;;;;;;;52.55;36.80;;;15.10;82.60;;;;;;5076758;28;20032;-71
2022/10/14 07:19:27;;;;;;;44.80;35.90;;;15.20;82.50;;;;;;5076697;28;20069;-69
2022/10/14 07:21:52;;;;;;;49.00;34.42;;;15.30;82.30;;;;;;5076662;28;20033;-68
2022/10/14 07:24:18;;;;;;;47.47;34.30;;;15.40;82.00;;;;;;5058552;28;20060;-68
2022/10/14 07:26:44;;;;;;;44.58;35.30;;;15.50;82.10;;;;;;5076421;28;20041;-67
2022/10/14 07:29:09;;;;;;;41.47;32.95;;;15.50;81.80;;;;;;5076573;28;20515;-68
2022/10/14 07:31:35;;;;;;;43.58;35.17;;;15.60;81.50;;;;;;5076455;28;20483;-71
2022/10/14 07:34:01;;;;;;;51.45;34.95;;;15.70;81.20;;;;;;5076154;28;20074;-67
2022/10/14 07:36:26;;;;;;;45.65;34.45;;;15.70;81.10;;;;;;5076523;28;20039;-70
2022/10/14 07:38:52;;;;;;;42.92;33.33;;;15.80;81.10;;;;;;5076340;28;20047;-68
2022/10/14 07:41:21;;;;;;;43.10;33.38;;;15.90;80.90;;;;;;5076056;28;20036;-67
2022/10/14 07:43:50;;;;;;;39.35;32.10;;;15.90;80.70;;;;;;5076193;28;20115;-68
2022/10/14 07:46:27;;;;;;;42.17;35.08;;;16.00;80.50;;;;;;5075800;28;20507;-68
2022/10/14 07:48:53;;;;;;;44.75;35.25;;;16.00;80.10;;;;;;5075520;28;20509;-68
2022/10/14 07:51:19;;;;;;;55.42;35.63;;;16.10;80.60;;;;;;5075856;28;20036;-68
2022/10/14 07:53:44;;;;;;;50.83;35.30;;;16.10;81.40;;;;;;5076141;28;20086;-68
2022/10/14 07:56:10;;;;;;;49.42;33.40;;;16.10;82.20;;;;;;5075915;28;20035;-68
2022/10/14 07:58:36;;;;;;;45.88;33.00;;;16.20;81.90;;;;;;5075542;28;20135;-68
2022/10/14 08:01:02;;;;;;;47.72;34.03;;;16.20;82.10;;;;;;5076154;28;20037;-68
2022/10/14 08:03:27;;;;;;;39.53;32.47;;;16.30;82.50;;;;;;5075974;28;20035;-68
2022/10/14 08:06:02;;;;;;;44.05;34.10;;;16.30;81.80;;;;;;5075973;28;20032;-68
2022/10/14 08:08:28;;;;;;;36.55;32.58;;;16.40;80.90;;;;;;5075486;28;20044;-68
2022/10/14 08:11:07;;;;;;;38.47;31.40;;;16.50;80.10;;;;;;5075395;28;20500;-68
2022/10/14 08:13:34;;;;;;;45.53;32.67;;;16.50;78.80;;;;;;5075883;28;20036;-68
2022/10/14 08:15:59;;;;;;;36.22;31.75;;;16.60;78.60;;;;;;5075095;28;20024;-68
2022/10/14 08:18:26;;;;;;;37.95;30.63;;;16.70;78.60;;;;;;5075433;28;20512;-67
2022/10/14 08:20:52;;;;;;;43.35;31.60;;;16.70;78.40;;;;;;5075275;28;20086;-68
2022/10/14 08:23:18;;;;;;;38.30;31.27;;;16.80;77.80;;;;;;5075250;28;20115;-69
2022/10/14 08:25:46;;;;;;;38.05;32.30;;;16.90;76.90;;;;;;5075037;28;20107;-69
2022/10/14 08:28:12;;;;;;;40.40;32.30;;;16.90;76.70;;;;;;5075320;28;20124;-68
2022/10/14 08:30:38;;;;;;;42.80;31.75;;;17.00;76.90;;;;;;5075188;28;20060;-69
2022/10/14 08:33:04;;;;;;;40.70;32.38;;;17.00;76.40;;;;;;5075266;28;20032;-68
2022/10/14 08:35:29;;;;;;;38.63;31.63;;;17.10;76.10;;;;;;5074911;28;20408;-68
2022/10/14 08:38:00;;;;;;;39.72;30.92;;;17.10;76.10;;;;;;5074908;28;20037;-68
2022/10/14 08:40:32;;;;;;;40.55;30.65;;;17.20;75.90;;;;;;5074717;28;20068;-69
2022/10/14 08:43:04;;;;;;;;;;;17.30;75.60;;;;;;5075424;28;20056;-68
2022/10/14 08:45:44;;;;;;;33.72;30.13;;;17.30;75.00;;;;;;5074907;28;19962;-68
2022/10/14 08:48:19;;;;;;;39.03;31.40;;;17.30;75.60;;;;;;5074733;28;20111;-68
2022/10/14 08:51:03;;;;;;;36.03;31.08;;;17.40;75.60;;;;;;5074820;28;20032;-68
2022/10/14 08:53:42;;;;;;;37.15;29.73;;;17.50;75.10;;;;;;5074983;28;20059;-68
2022/10/14 08:56:12;;;;;;;35.72;30.73;;;17.50;74.90;;;;;;5074729;28;20032;-68
2022/10/14 08:58:49;;;;;;;34.53;30.70;;;17.60;74.40;;;;;;5074808;28;20090;-68
2022/10/14 09:01:28;;;;;;;34.75;30.85;;;17.70;75.10;;;;;;5074511;28;20036;-68
2022/10/14 09:04:04;;;;;;;39.83;29.55;;;17.70;74.90;;;;;;5074390;28;20381;-68
2022/10/14 09:06:37;;;;;;;36.70;30.60;;;17.80;75.40;;;;;;5074705;28;20036;-68
2022/10/14 09:09:33;;;;;;;36.05;30.90;;;17.80;75.10;;;;;;5074338;28;20040;-68
2022/10/14 09:12:03;;;;;;;33.08;29.45;;;18.00;75.00;;;;;;5070945;28;20031;-68
2022/10/14 09:14:35;;;;;;;34.65;30.65;;;18.00;74.00;;;;;;5074373;28;20037;-68
2022/10/14 09:17:17;;;;;;;32.78;28.27;;;18.10;73.60;;;;;;5074046;28;20028;-68
2022/10/14 09:19:48;;;;;;;37.83;29.70;;;18.10;73.50;;;;;;5073909;28;20428;-68
2022/10/14 09:22:14;;;;;;;34.20;30.30;;;18.20;73.00;;;;;;5074175;28;20028;-68
2022/10/14 09:24:45;;;;;;;32.67;29.10;;;18.30;72.90;;;;;;5074224;28;20116;-72
2022/10/14 09:27:21;;;;;;;30.50;27.23;;;18.30;72.80;;;;;;5073139;28;20040;-68
2022/10/14 09:30:01;;;;;;;34.75;27.48;;;18.40;73.00;;;;;;5074310;28;20036;-68
2022/10/14 09:32:33;;;;;;;31.83;28.20;;;18.50;72.00;;;;;;5073937;28;20047;-68
2022/10/14 09:34:59;;;;;;;35.95;26.98;;;18.60;72.00;;;;;;5074029;28;20067;-68
2022/10/14 09:37:30;;;;;;;29.58;26.48;;;18.60;72.30;;;;;;5074030;28;20431;-68
2022/10/14 09:40:03;;;;;;;28.65;25.60;;;18.70;71.20;;;;;;5073904;28;20370;-68
2022/10/14 09:42:59;;;;;;;29.92;25.77;;;18.70;71.00;;;;;;5055443;28;20410;-68
2022/10/14 09:45:26;;;;;;;31.05;27.73;;;18.80;69.60;;;;;;5073881;28;20052;-68
2022/10/14 09:47:59;;;;;;;29.27;25.27;;;18.90;68.80;;;;;;5073789;28;20045;-68
2022/10/14 09:50:30;;;;;;;28.90;25.10;;;18.90;68.90;;;;;;5073249;28;20115;-68
2022/10/14 09:53:01;;;;;;;28.38;25.35;;;19.00;68.10;;;;;;5073707;28;20111;-68
2022/10/14 09:55:27;;;;;;;29.67;26.48;;;19.00;68.30;;;;;;5073537;28;20780;-68
2022/10/14 09:58:06;;;;;;;28.80;25.67;;;19.10;68.70;;;;;;5073384;28;20481;-68
2022/10/14 10:00:34;;;;;;;33.42;25.60;;;19.10;68.10;;;;;;5073205;28;20052;-68
2022/10/14 10:03:00;;;;;;;26.75;23.85;;;19.20;67.90;;;;;;5073378;28;20089;-68
2022/10/14 10:05:31;;;;;;;27.95;25.10;;;19.30;66.70;;;;;;5073511;28;20024;-68
2022/10/14 10:08:16;;;;;;;28.33;22.73;;;19.30;67.00;;;;;;5073167;28;20143;-68
2022/10/14 10:10:57;;;;;;;28.98;24.20;;;19.30;65.30;;;;;;5073314;28;20028;-67
2022/10/14 10:13:45;;;;;;;25.77;23.02;;;19.40;66.30;;;;;;5073163;28;20040;-67
2022/10/14 10:16:27;;;;;;;28.90;23.33;;;19.40;65.20;;;;;;5072717;28;20115;-68
2022/10/14 10:18:54;;;;;;;29.02;24.08;;;19.40;63.80;;;;;;5072739;28;20028;-72
2022/10/14 10:21:29;;;;;;;31.15;24.52;;;19.50;65.50;;;;;;5072380;28;20174;-68
2022/10/14 10:24:02;;;;;;;26.00;23.02;;;19.50;65.70;;;;;;5072820;28;20025;-67
2022/10/14 10:26:32;;;;;;;28.08;25.08;;;19.60;64.20;;;;;;5073134;28;20025;-68
2022/10/14 10:29:03;;;;;;;26.33;23.55;;;19.60;65.30;;;;;;5072984;28;20041;-68
2022/10/14 10:31:51;;;;;;;27.55;23.00;;;19.70;64.40;;;;;;5073027;28;20544;-68
2022/10/14 10:34:34;;;;;;;24.30;21.75;;;19.70;63.50;;;;;;5072934;28;20033;-68
2022/10/14 10:37:11;;;;;;;23.50;21.02;;;19.70;64.00;;;;;;5072517;28;20154;-68
2022/10/14 10:39:52;;;;;;;27.08;23.75;;;19.80;62.40;;;;;;5072747;28;20111;-68
2022/10/14 10:42:38;;;;;;;25.65;22.85;;;19.90;63.30;;;;;;5072754;28;20033;-68
2022/10/14 10:45:32;;;;;;;26.20;21.52;;;19.90;64.30;;;;;;5072760;28;20020;-68
2022/10/14 10:48:08;;;;;;;27.58;21.50;;;19.90;63.30;;;;;;5072671;28;20123;-68
2022/10/14 10:50:54;;;;;;;25.13;22.05;;;20.00;62.40;;;;;;5072796;28;20496;-68
2022/10/14 10:53:48;;;;;;;25.75;22.80;;;20.10;62.40;;;;;;5072962;28;20036;-68
2022/10/14 10:56:38;;;;;;;26.27;22.55;;;20.10;63.70;;;;;;5072503;28;20424;-67
2022/10/14 10:59:05;;;;;;;24.75;21.10;;;20.10;63.50;;;;;;5072549;28;20497;-68
2022/10/14 11:02:06;;;;;;;23.45;20.98;;;20.20;62.20;;;;;;5072459;28;20029;-68
2022/10/14 11:04:42;;;;;;;24.17;21.75;;;20.20;62.50;;;;;;5072942;28;20045;-68
2022/10/14 11:13:37;;;;;;;31.27;23.42;;;20.40;62.30;;;;;;5070947;28;20083;-68
2022/10/14 11:16:13;;;;;;;30.42;23.40;;;20.50;61.30;;;;;;5065288;28;20554;-68
2022/10/14 11:18:44;;;;;;;28.05;22.58;;;20.50;61.00;;;;;;5071071;28;20040;-69
2022/10/14 11:21:31;;;;;;;27.65;24.75;;;20.60;60.90;;;;;;5072401;28;20078;-68
2022/10/14 11:24:05;;;;;;;31.10;24.88;;;20.60;60.40;;;;;;5072259;28;20064;-69
2022/10/14 11:26:52;;;;;;;25.88;22.70;;;20.60;61.40;;;;;;5072429;28;20100;-69
2022/10/14 11:29:26;;;;;;;26.83;23.63;;;20.60;60.00;;;;;;5072736;28;20041;-68
2022/10/14 11:32:26;;;;;;;25.63;22.65;;;20.60;60.30;;;;;;5072634;28;20048;-69
2022/10/14 11:34:57;;;;;;;29.52;24.20;;;20.70;61.60;;;;;;5072258;28;20041;-69
2022/10/14 11:37:28;;;;;;;23.67;21.17;;;20.70;60.60;;;;;;5071872;28;20037;-69
2022/10/14 11:40:08;;;;;;;24.27;21.13;;;20.80;60.70;;;;;;5068496;28;20374;-68
2022/10/14 11:42:37;;;;;;;24.83;22.00;;;20.80;59.00;;;;;;5069422;28;20082;-68
2022/10/14 11:45:09;;;;;;;24.58;21.40;;;20.90;59.70;;;;;;5070511;28;20060;-69
2022/10/14 11:47:38;;;;;;;24.27;21.17;;;20.90;58.90;;;;;;5071865;28;20036;-68
2022/10/14 11:50:15;;;;;;;25.73;21.65;;;20.90;59.10;;;;;;5072129;28;20037;-69
2022/10/14 11:53:03;;;;;;;25.15;21.27;;;20.90;58.50;;;;;;5075552;28;20044;-68
2022/10/14 11:55:34;;;;;;;25.92;20.25;;;21.00;58.70;;;;;;5076045;28;20480;-68
2022/10/14 11:58:08;;;;;;;23.55;20.67;;;21.00;58.00;;;;;;5075862;28;20029;-68
2022/10/14 12:00:36;;;;;;;23.30;20.15;;;21.00;57.10;;;;;;5075227;28;20060;-67
2022/10/14 12:03:19;;;;;;;22.38;19.90;;;21.10;57.20;;;;;;5075815;28;20056;-68
2022/10/14 12:06:05;;;;;;;24.33;19.55;;;21.10;57.50;;;;;;5075814;28;20504;-68
2022/10/14 12:08:39;;;;;;;23.98;20.52;;;21.10;57.00;;;;;;5075652;28;20067;-68
2022/10/14 12:11:09;;;;;;;23.98;21.38;;;21.20;56.80;;;;;;5075036;28;20412;-68
2022/10/14 12:13:46;;;;;;;23.52;20.73;;;21.20;56.70;;;;;;5075713;28;20074;-68
2022/10/14 12:16:17;;;;;;;26.65;20.85;;;21.20;57.30;;;;;;5075607;28;20048;-68
2022/10/14 12:18:51;;;;;;;24.00;21.70;;;21.20;57.00;;;;;;5075818;28;20028;-68
2022/10/14 12:21:23;;;;;;;25.73;21.45;;;21.20;57.30;;;;;;5075476;28;20055;-68
2022/10/14 12:24:13;;;;;;;24.55;21.92;;;21.30;57.00;;;;;;5075678;28;20033;-68
2022/10/14 12:26:38;;;;;;;24.58;19.88;;;21.20;57.40;;;;;;5075344;28;20032;-68
2022/10/14 12:29:04;;;;;;;21.92;19.73;;;21.30;56.40;;;;;;5075467;28;20455;-68
2022/10/14 12:31:35;;;;;;;25.65;20.23;;;21.30;55.90;;;;;;5075295;28;20040;-68
2022/10/14 12:34:10;;;;;;;23.88;21.20;;;21.40;56.40;;;;;;5075648;28;20119;-68
2022/10/14 12:36:37;;;;;;;28.25;22.65;;;21.40;57.20;;;;;;5075110;28;20037;-68
2022/10/14 12:39:17;;;;;;;24.15;21.55;;;21.40;58.70;;;;;;5074823;28;20063;-68
2022/10/14 12:41:55;;;;;;;28.73;21.98;;;21.40;58.20;;;;;;5075540;28;20039;-68
2022/10/14 12:44:23;;;;;;;23.98;21.08;;;21.40;57.00;;;;;;5075121;28;20473;-68
2022/10/14 12:46:51;;;;;;;23.65;21.15;;;21.40;57.40;;;;;;5074888;28;20040;-68
2022/10/14 12:49:31;;;;;;;24.42;21.27;;;21.40;57.30;;;;;;5075047;28;20118;-68
2022/10/14 12:52:03;;;;;;;23.17;20.77;;;21.30;57.80;;;;;;5074864;28;20041;-68
2022/10/14 12:54:29;;;;;;;21.80;19.55;;;21.40;57.00;;;;;;5074519;28;20032;-68
2022/10/14 12:57:19;;;;;;;24.77;19.83;;;21.40;56.90;;;;;;5075178;28;20044;-68
2022/10/14 12:59:50;;;;;;;22.35;18.20;;;21.40;56.10;;;;;;5074605;28;20044;-68
2022/10/14 13:02:32;;;;;;;21.70;19.35;;;21.40;55.00;;;;;;5074656;28;20036;-71
2022/10/14 13:05:19;;;;;;;24.98;19.58;;;21.40;55.00;;;;;;5074561;28;20068;-72
2022/10/14 13:07:48;;;;;;;20.55;18.33;;;21.50;55.30;;;;;;5074651;28;20041;-71
2022/10/14 13:10:26;;;;;;;28.40;20.42;;;21.50;54.20;;;;;;5074482;28;20115;-71
2022/10/14 13:12:52;;;;;;;22.40;18.55;;;21.60;55.60;;;;;;5074036;28;20037;-72
2022/10/14 13:15:50;;;;;;;25.13;20.95;;;21.60;55.10;;;;;;5074194;28;20139;-72
2022/10/14 13:18:32;;;;;;;20.05;17.92;;;21.60;55.00;;;;;;5074299;28;20044;-72
2022/10/14 13:20:57;;;;;;;;;;;21.60;54.10;;;;;;5074803;28;20463;-72
2022/10/14 13:23:44;;;;;;;20.48;18.23;;;21.60;54.10;;;;;;5074252;28;19948;-72
2022/10/14 13:26:36;;;;;;;21.25;17.80;;;21.60;54.20;;;;;;5072830;28;20040;-72
2022/10/14 13:29:17;;;;;;;21.98;19.15;;;21.60;54.00;;;;;;5050589;28;20048;-72
2022/10/14 13:32:07;;;;;;;27.13;19.95;;;21.60;54.30;;;;;;5066966;28;20036;-72
2022/10/14 13:34:55;;;;;;;22.17;18.92;;;21.60;54.20;;;;;;5068311;28;20075;-72
2022/10/14 13:37:30;;;;;;;22.42;20.17;;;21.60;54.10;;;;;;5072710;28;20067;-72
2022/10/14 13:39:57;;;;;;;21.63;19.35;;;21.50;54.50;;;;;;5073789;28;20040;-72
2022/10/14 13:42:30;;;;;;;27.10;21.20;;;21.60;54.50;;;;;;5073457;28;20032;-72
2022/10/14 13:45:05;;;;;;;24.27;20.63;;;21.60;54.90;;;;;;5073642;28;20036;-72
2022/10/14 13:47:32;;;;;;;32.97;21.20;;;21.50;54.60;;;;;;5073910;28;20063;-72
2022/10/14 13:50:00;;;;;;;23.45;21.05;;;21.60;54.20;;;;;;5073712;28;20120;-72
2022/10/14 13:52:26;;;;;;;27.33;19.58;;;21.50;54.40;;;;;;5073425;28;20041;-71